Time;durP1;ratioP1;P1;durP2;ratioP2;P2;SDS_P1;SDS_P2;PMS_P1;PMS_P2;Temp;Humidity;BMP_temperature;BMP_pressure;BME280_temperature;BME280_humidity;BME280_pressure;Samples;Min_cycle;Max_cycle;Signal;HPM_P1;HPM_P2
2023/09/09 00:00:39;;;;;;;8.73;7.18;;;19.30;99.90;;;;;;4947798;28;20047;-89
2023/09/09 00:03:06;;;;;;;8.80;7.90;;;19.40;99.90;;;;;;4963364;28;20042;-89
2023/09/09 00:05:33;;;;;;;;;;;19.40;99.90;;;;;;4963892;28;20061;-89
2023/09/09 00:07:59;;;;;;;7.75;6.95;;;19.40;99.90;;;;;;4947358;28;19968;-89
2023/09/09 00:10:25;;;;;;;9.43;8.18;;;19.30;99.90;;;;;;4963551;28;20042;-89
2023/09/09 00:12:50;;;;;;;9.95;8.02;;;19.30;99.90;;;;;;4963302;28;20085;-91
2023/09/09 00:15:25;;;;;;;9.18;8.38;;;19.20;99.90;;;;;;4947475;28;20166;-89
2023/09/09 00:17:56;;;;;;;9.05;8.15;;;19.20;99.90;;;;;;4963148;28;20381;-91
2023/09/09 00:20:39;;;;;;;9.75;8.82;;;19.20;99.90;;;;;;4963428;28;20054;-89
2023/09/09 00:23:07;;;;;;;8.48;7.15;;;19.20;99.90;;;;;;4963049;28;20054;-89
2023/09/09 00:25:44;;;;;;;;;;;;;;;;;;;;;
2023/09/09 00:28:12;;;;;;;9.85;8.18;;;19.10;99.90;;;;;;4964312;28;20061;-89
2023/09/09 00:30:38;;;;;;;9.93;8.30;;;19.00;99.90;;;;;;4963090;28;20052;-89
2023/09/09 00:33:04;;;;;;;9.25;8.32;;;19.00;99.90;;;;;;4962669;28;20054;-89
2023/09/09 00:35:33;;;;;;;7.93;7.22;;;19.00;99.90;;;;;;4963146;28;20051;-89
2023/09/09 00:38:04;;;;;;;7.72;6.93;;;19.00;99.90;;;;;;4961937;28;20497;-88
2023/09/09 00:40:29;;;;;;;8.10;7.30;;;18.90;99.90;;;;;;4962815;28;20060;-89
2023/09/09 00:42:55;;;;;;;9.80;7.45;;;18.90;99.90;;;;;;4962524;28;20046;-90
2023/09/09 00:45:21;;;;;;;7.88;6.32;;;17.80;99.90;;;;;;4947029;28;20061;-88
2023/09/09 00:47:47;;;;;;;8.98;6.90;;;18.80;99.90;;;;;;4962941;28;20496;-89
2023/09/09 00:50:13;;;;;;;8.27;7.47;;;18.90;99.90;;;;;;4962343;28;20161;-89
2023/09/09 00:52:49;;;;;;;10.98;7.93;;;18.80;99.90;;;;;;4978547;28;20056;-89
2023/09/09 00:55:15;;;;;;;10.50;8.63;;;18.80;99.90;;;;;;4962342;28;20101;-89
2023/09/09 00:57:41;;;;;;;8.85;8.05;;;18.80;99.90;;;;;;4962648;28;20050;-89
2023/09/09 01:00:10;;;;;;;10.23;8.70;;;18.80;99.90;;;;;;4978277;28;20051;-89
2023/09/09 01:02:44;;;;;;;10.27;9.07;;;18.70;99.90;;;;;;4947322;28;20045;-89
2023/09/09 01:05:13;;;;;;;10.65;8.68;;;18.70;99.90;;;;;;4962128;28;20050;-89
2023/09/09 01:07:44;;;;;;;8.93;8.13;;;18.70;99.90;;;;;;4946498;28;20057;-89
2023/09/09 01:10:10;;;;;;;9.82;8.75;;;18.60;99.90;;;;;;4962284;28;20058;-88
2023/09/09 01:12:36;;;;;;;;;;;18.70;99.90;;;;;;4962842;28;20141;-89
2023/09/09 01:15:02;;;;;;;8.98;7.75;;;18.50;99.90;;;;;;4962023;28;20020;-89
2023/09/09 01:17:29;;;;;;;;;;;18.50;99.90;;;;;;4962733;28;20046;-88
2023/09/09 01:19:58;;;;;;;8.65;7.85;;;18.50;99.90;;;;;;4961344;28;19929;-89
2023/09/09 01:22:33;;;;;;;10.85;8.73;;;18.40;99.90;;;;;;4961600;28;20046;-89
2023/09/09 01:24:59;;;;;;;10.07;8.30;;;18.60;99.90;;;;;;4962207;28;20061;-88
2023/09/09 01:27:25;;;;;;;9.93;8.93;;;18.50;99.90;;;;;;4978393;28;20049;-89
2023/09/09 01:29:51;;;;;;;10.05;8.15;;;18.50;99.90;;;;;;4961990;28;20046;-89
2023/09/09 01:32:29;;;;;;;11.88;9.30;;;18.50;99.90;;;;;;4961676;28;20046;-89
2023/09/09 01:34:57;;;;;;;11.13;8.93;;;18.40;99.90;;;;;;4962125;28;20483;-89
2023/09/09 01:37:23;;;;;;;10.07;8.77;;;18.40;99.90;;;;;;4961061;28;20101;-89
2023/09/09 01:39:49;;;;;;;11.25;8.68;;;18.40;99.90;;;;;;4961121;28;20046;-89
2023/09/09 01:42:15;;;;;;;14.55;9.07;;;18.30;99.90;;;;;;4960791;28;20078;-89
2023/09/09 01:44:45;;;;;;;9.43;8.50;;;18.30;99.90;;;;;;4961848;28;20039;-89
2023/09/09 01:47:13;;;;;;;10.98;7.95;;;18.30;99.90;;;;;;4961296;28;20053;-89
2023/09/09 01:49:41;;;;;;;10.70;8.52;;;18.20;99.90;;;;;;4945230;28;20390;-89
2023/09/09 01:52:07;;;;;;;9.98;8.95;;;18.30;99.90;;;;;;4961410;28;20109;-89
2023/09/09 01:54:33;;;;;;;9.65;8.75;;;18.20;99.90;;;;;;4977278;28;20441;-89
2023/09/09 01:57:02;;;;;;;9.23;8.32;;;18.20;1.00;;;;;;4961622;28;20543;-89
2023/09/09 01:59:27;;;;;;;11.23;9.07;;;17.30;99.90;;;;;;4977007;28;20121;-89
2023/09/09 02:01:53;;;;;;;9.38;8.32;;;18.20;99.90;;;;;;4961480;28;20196;-88
2023/09/09 02:04:19;;;;;;;9.68;8.77;;;18.20;99.90;;;;;;4977196;28;20046;-89
2023/09/09 02:06:47;;;;;;;8.70;7.90;;;18.10;99.90;;;;;;4977436;28;20046;-89
2023/09/09 02:09:13;;;;;;;9.40;8.40;;;18.20;99.90;;;;;;4960983;28;20046;-89
2023/09/09 02:11:42;;;;;;;8.77;7.88;;;18.10;99.90;;;;;;4961268;28;20104;-88
2023/09/09 02:14:08;;;;;;;10.27;8.95;;;18.10;99.90;;;;;;4960662;28;20054;-89
2023/09/09 02:16:34;;;;;;;9.85;8.80;;;18.10;99.90;;;;;;4961557;28;20400;-89
2023/09/09 02:18:59;;;;;;;8.73;7.88;;;18.00;99.90;;;;;;4961185;28;20616;-90
2023/09/09 02:21:25;;;;;;;9.98;8.75;;;18.00;1.00;;;;;;4960513;28;20042;-89
2023/09/09 02:23:51;;;;;;;10.45;9.45;;;18.00;1.00;;;;;;4960817;28;20396;-89
2023/09/09 02:26:17;;;;;;;9.00;8.07;;;17.90;1.00;;;;;;4960661;28;20085;-88
2023/09/09 02:28:45;;;;;;;9.68;8.48;;;18.00;1.00;;;;;;4960982;28;20038;-89
2023/09/09 02:31:11;;;;;;;11.43;8.57;;;17.90;1.00;;;;;;4960573;28;20070;-89
2023/09/09 02:33:37;;;;;;;12.85;10.15;;;17.90;1.00;;;;;;4976691;28;20657;-89
2023/09/09 02:36:03;;;;;;;9.73;8.80;;;18.00;1.00;;;;;;4944923;28;20144;-89
2023/09/09 02:38:29;;;;;;;10.38;8.48;;;17.90;1.00;;;;;;4960153;28;20061;-89
2023/09/09 02:40:57;;;;;;;9.77;8.85;;;17.90;1.00;;;;;;4960738;28;20146;-89
2023/09/09 02:43:25;;;;;;;9.02;8.23;;;17.90;1.00;;;;;;4960221;28;20058;-89
2023/09/09 02:45:51;;;;;;;11.00;9.43;;;17.90;1.00;;;;;;4961166;28;20048;-89
2023/09/09 02:48:17;;;;;;;9.13;8.20;;;17.90;1.00;;;;;;4960407;28;20128;-89
2023/09/09 02:50:43;;;;;;;9.80;8.60;;;17.80;1.00;;;;;;4976973;28;20057;-89
2023/09/09 02:53:08;;;;;;;10.05;9.05;;;16.90;1.00;;;;;;4960492;28;20133;-89
2023/09/09 02:55:34;;;;;;;11.60;9.00;;;17.80;1.00;;;;;;4960170;28;20141;-89
2023/09/09 02:58:00;;;;;;;10.95;9.63;;;17.80;1.00;;;;;;4976598;28;20050;-88
2023/09/09 03:00:26;;;;;;;11.65;10.57;;;17.80;1.00;;;;;;4959862;28;20501;-89
2023/09/09 03:02:51;;;;;;;11.02;9.90;;;17.80;1.00;;;;;;4960624;28;20042;-89
2023/09/09 03:05:17;;;;;;;11.98;10.82;;;17.80;1.00;;;;;;4927522;28;20046;-88
2023/09/09 03:07:45;;;;;;;12.27;10.98;;;17.80;1.00;;;;;;4944512;28;20382;-88
2023/09/09 03:10:11;;;;;;;11.50;10.38;;;17.70;1.00;;;;;;4976415;28;20050;-88
2023/09/09 03:12:37;;;;;;;11.13;9.35;;;16.70;1.00;;;;;;4959973;28;20481;-89
2023/09/09 03:15:05;;;;;;;14.48;10.90;;;17.70;1.00;;;;;;4960213;28;20168;-89
2023/09/09 03:17:31;;;;;;;12.18;10.82;;;17.60;1.00;;;;;;4959898;28;20050;-88
2023/09/09 03:19:57;;;;;;;11.52;9.75;;;17.60;1.00;;;;;;4959988;28;20046;-89
2023/09/09 03:22:23;;;;;;;12.30;10.38;;;17.60;1.00;;;;;;4959861;28;20057;-89
2023/09/09 03:24:51;;;;;;;13.38;11.40;;;17.50;1.00;;;;;;4960255;28;20061;-88
2023/09/09 03:27:21;;;;;;;14.38;11.20;;;17.60;1.00;;;;;;4959850;28;20051;-89
2023/09/09 03:29:49;;;;;;;11.95;10.43;;;17.50;1.00;;;;;;4960520;28;20069;-89
2023/09/09 03:32:15;;;;;;;12.32;11.02;;;17.50;1.00;;;;;;4960172;28;20047;-89
2023/09/09 03:34:41;;;;;;;12.35;11.10;;;17.60;1.00;;;;;;4959842;28;20047;-88
2023/09/09 03:37:09;;;;;;;14.38;11.48;;;17.60;1.00;;;;;;4960278;28;20105;-89
2023/09/09 03:39:35;;;;;;;13.15;11.60;;;17.60;1.00;;;;;;4975585;28;20133;-89
2023/09/09 03:42:01;;;;;;;11.90;10.75;;;16.40;1.00;;;;;;4943659;28;20158;-88
2023/09/09 03:44:27;;;;;;;13.90;10.40;;;17.50;1.00;;;;;;4959825;28;20556;-89
2023/09/09 03:46:55;;;;;;;13.98;11.73;;;17.50;1.00;;;;;;4960159;28;20051;-89
2023/09/09 03:49:21;;;;;;;13.82;12.57;;;17.50;1.00;;;;;;4944123;28;20060;-89
2023/09/09 03:51:49;;;;;;;13.85;12.23;;;17.40;1.00;;;;;;4944171;28;20050;-89
2023/09/09 03:54:15;;;;;;;12.93;11.55;;;17.40;1.00;;;;;;4960101;28;20046;-88
2023/09/09 03:56:41;;;;;;;13.88;12.48;;;17.40;1.00;;;;;;4975726;28;20477;-88
2023/09/09 03:59:09;;;;;;;13.13;11.25;;;17.40;1.00;;;;;;4943983;28;20120;-89
2023/09/09 04:01:53;;;;;;;12.88;11.68;;;17.40;1.00;;;;;;4959590;28;20054;-88
2023/09/09 04:04:19;;;;;;;12.80;11.32;;;17.40;1.00;;;;;;4959963;28;20050;-89
2023/09/09 04:06:47;;;;;;;13.85;11.55;;;17.30;1.00;;;;;;4975320;28;20564;-89
2023/09/09 04:09:22;;;;;;;12.55;11.23;;;17.20;1.00;;;;;;4976120;28;20054;-89
2023/09/09 04:11:48;;;;;;;13.48;12.15;;;16.20;1.00;;;;;;4962918;28;20145;-89
2023/09/09 04:14:14;;;;;;;13.65;12.30;;;17.20;1.00;;;;;;4943843;28;20085;-89
2023/09/09 04:16:40;;;;;;;13.35;12.05;;;17.20;1.00;;;;;;4961038;28;20046;-89
2023/09/09 04:19:08;;;;;;;14.13;12.55;;;17.20;1.00;;;;;;4950278;28;20042;-89
2023/09/09 04:21:35;;;;;;;13.18;11.88;;;17.20;1.00;;;;;;4962993;28;20046;-89
2023/09/09 04:24:01;;;;;;;14.75;13.25;;;17.20;1.00;;;;;;4979580;28;20050;-89
2023/09/09 04:26:27;;;;;;;15.35;13.85;;;17.20;1.00;;;;;;4962887;28;20050;-88
2023/09/09 04:28:53;;;;;;;15.13;13.63;;;17.20;1.00;;;;;;4947325;28;20049;-88
2023/09/09 04:31:21;;;;;;;16.35;14.65;;;17.30;1.00;;;;;;4963119;28;20489;-89
2023/09/09 04:33:47;;;;;;;16.35;14.65;;;17.20;1.00;;;;;;4962968;28;20062;-89
2023/09/09 04:36:13;;;;;;;15.25;13.70;;;17.10;1.00;;;;;;4963008;28;20370;-89
2023/09/09 04:38:39;;;;;;;15.80;13.95;;;17.20;1.00;;;;;;4962436;28;20105;-88
2023/09/09 04:41:04;;;;;;;17.38;14.45;;;17.10;1.00;;;;;;4962771;28;20062;-89
2023/09/09 04:43:32;;;;;;;15.80;14.15;;;17.10;1.00;;;;;;4962568;28;20054;-89
2023/09/09 04:45:58;;;;;;;18.38;15.73;;;17.10;1.00;;;;;;4962857;28;20053;-88
2023/09/09 04:48:24;;;;;;;18.77;16.55;;;17.10;1.00;;;;;;4962853;28;20046;-89
2023/09/09 04:50:50;;;;;;;18.40;16.50;;;17.10;1.00;;;;;;4962536;28;20054;-88
2023/09/09 04:53:16;;;;;;;17.25;15.45;;;17.10;1.00;;;;;;4947148;28;20050;-89
2023/09/09 04:55:42;;;;;;;18.70;16.77;;;17.10;1.00;;;;;;4946382;28;20069;-89
2023/09/09 04:58:10;;;;;;;17.58;15.27;;;17.10;1.00;;;;;;4946679;28;20117;-89
2023/09/09 05:00:38;;;;;;;18.90;15.32;;;17.00;1.00;;;;;;4961986;28;20512;-88
2023/09/09 05:03:04;;;;;;;20.15;17.48;;;17.00;1.00;;;;;;4978621;28;20051;-89
2023/09/09 05:05:30;;;;;;;17.45;15.65;;;17.10;1.00;;;;;;4961916;28;20042;-89
2023/09/09 05:07:55;;;;;;;17.65;16.02;;;17.10;1.00;;;;;;4978575;28;20081;-89
2023/09/09 05:10:22;;;;;;;16.58;15.05;;;17.10;1.00;;;;;;4962471;28;20053;-89
2023/09/09 05:12:48;;;;;;;18.67;16.35;;;17.10;1.00;;;;;;4946283;28;20082;-88
2023/09/09 05:15:23;;;;;;;20.10;14.88;;;17.00;1.00;;;;;;4946618;28;20144;-89
2023/09/09 05:17:51;;;;;;;18.60;16.42;;;17.00;1.00;;;;;;4961818;28;20046;-89
2023/09/09 05:20:19;;;;;;;18.33;16.50;;;17.00;1.00;;;;;;4978276;28;20132;-89
2023/09/09 05:22:45;;;;;;;19.80;17.48;;;17.10;1.00;;;;;;4961860;28;20050;-88
2023/09/09 05:25:11;;;;;;;19.30;16.08;;;17.10;1.00;;;;;;4962275;28;20408;-88
2023/09/09 05:27:37;;;;;;;18.98;17.08;;;17.20;1.00;;;;;;4960905;28;20050;-88
2023/09/09 05:30:05;;;;;;;21.08;18.60;;;17.20;1.00;;;;;;4962169;28;20051;-88
2023/09/09 05:32:34;;;;;;;24.13;19.88;;;17.20;1.00;;;;;;4978144;28;20053;-88
2023/09/09 05:35:02;;;;;;;28.67;23.02;;;17.20;1.00;;;;;;4961459;28;20046;-88
2023/09/09 05:37:30;;;;;;;23.92;21.40;;;17.30;1.00;;;;;;4962112;28;20093;-89
2023/09/09 05:40:03;;;;;;;23.33;20.13;;;17.30;1.00;;;;;;4961445;28;20050;-88
2023/09/09 05:42:31;;;;;;;25.08;22.55;;;17.40;1.00;;;;;;4960972;28;20425;-88
2023/09/09 05:44:57;;;;;;;23.58;21.08;;;17.50;1.00;;;;;;4945672;28;20073;-89
2023/09/09 05:47:23;;;;;;;24.08;21.67;;;17.60;1.00;;;;;;4961672;28;20492;-89
2023/09/09 05:49:49;;;;;;;27.00;21.50;;;17.70;1.00;;;;;;4961466;28;20051;-88
2023/09/09 05:52:15;;;;;;;23.38;20.67;;;17.70;1.00;;;;;;4961717;28;20049;-89
2023/09/09 05:54:44;;;;;;;24.23;20.15;;;17.80;1.00;;;;;;4945425;28;20100;-89
2023/09/09 05:57:10;;;;;;;26.80;21.70;;;18.00;1.00;;;;;;4961524;28;20107;-89
2023/09/09 05:59:36;;;;;;;24.02;20.17;;;18.40;1.00;;;;;;4945454;28;20047;-89
2023/09/09 06:02:01;;;;;;;27.65;20.70;;;18.70;1.00;;;;;;4945738;28;20053;-89
2023/09/09 06:04:27;;;;;;;22.73;20.42;;;19.00;1.00;;;;;;4961494;28;20457;-89
2023/09/09 06:06:53;;;;;;;22.17;19.75;;;19.30;1.00;;;;;;4944930;28;20050;-89
2023/09/09 06:09:26;;;;;;;24.58;20.48;;;19.60;1.00;;;;;;4961468;28;20086;-89
2023/09/09 06:11:54;;;;;;;22.58;20.33;;;19.90;1.00;;;;;;4961003;28;20060;-89
2023/09/09 06:14:22;;;;;;;21.15;18.98;;;20.20;1.00;;;;;;4961304;28;20060;-89
2023/09/09 06:16:48;;;;;;;21.40;19.25;;;20.50;1.00;;;;;;4960880;28;20073;-89
2023/09/09 06:19:16;;;;;;;21.95;19.65;;;20.70;1.00;;;;;;4961042;28;20039;-89
2023/09/09 06:21:44;;;;;;;24.65;22.10;;;20.90;1.00;;;;;;4960534;28;20043;-90
2023/09/09 06:24:12;;;;;;;24.27;19.15;;;21.20;1.00;;;;;;4961525;28;20056;-89
2023/09/09 06:26:40;;;;;;;20.60;18.50;;;21.40;99.90;;;;;;4977175;28;20061;-89
2023/09/09 06:29:08;;;;;;;22.25;20.05;;;21.80;99.90;;;;;;4961038;28;20120;-90
2023/09/09 06:31:34;;;;;;;21.10;19.10;;;22.00;99.90;;;;;;4945047;28;20046;-90
2023/09/09 06:34:02;;;;;;;22.83;20.48;;;22.30;99.90;;;;;;4960257;28;20116;-90
2023/09/09 06:36:36;;;;;;;28.05;20.42;;;22.50;99.90;;;;;;4931207;28;20043;-90
2023/09/09 06:39:03;;;;;;;27.30;20.40;;;22.80;99.90;;;;;;4945195;28;20532;-90
2023/09/09 06:41:31;;;;;;;22.13;19.80;;;23.10;99.90;;;;;;4944732;28;20065;-90
2023/09/09 06:44:04;;;;;;;23.08;20.80;;;23.00;1.00;;;;;;4944300;28;20485;-90
2023/09/09 06:46:30;;;;;;;21.73;19.25;;;23.50;99.90;;;;;;4960604;28;20046;-90
2023/09/09 06:48:56;;;;;;;;;;;23.70;1.00;;;;;;4960683;28;20413;-90
2023/09/09 06:51:22;;;;;;;19.88;17.98;;;23.80;99.90;;;;;;4960789;28;19921;-91
2023/09/09 06:53:53;;;;;;;22.50;20.13;;;23.90;99.90;;;;;;4960283;28;20050;-91
2023/09/09 06:56:21;;;;;;;20.40;18.23;;;24.10;99.90;;;;;;4944927;28;20512;-90
2023/09/09 06:58:49;;;;;;;22.58;19.50;;;24.30;1.00;;;;;;4944276;28;20086;-90
2023/09/09 07:01:18;;;;;;;23.02;20.67;;;24.60;99.90;;;;;;4960817;28;20069;-91
2023/09/09 07:03:46;;;;;;;21.83;19.52;;;24.60;1.00;;;;;;4960565;28;20053;-90
2023/09/09 07:06:15;;;;;;;20.92;18.58;;;24.10;99.90;;;;;;4960562;28;20058;-90
2023/09/09 07:08:40;;;;;;;22.20;19.65;;;24.90;1.00;;;;;;4960385;28;20404;-90
2023/09/09 07:11:08;;;;;;;;;;;25.00;99.90;;;;;;4960495;28;20137;-90
2023/09/09 07:13:37;;;;;;;23.00;20.88;;;25.10;99.90;;;;;;4976137;28;19936;-90
2023/09/09 07:16:06;;;;;;;24.38;21.92;;;25.20;39.60;;;;;;4960042;28;20086;-90
2023/09/09 07:18:40;;;;;;;23.98;21.67;;;25.30;99.90;;;;;;4976209;28;20046;-90
2023/09/09 07:21:12;;;;;;;25.35;22.80;;;25.40;99.90;;;;;;4951965;28;20481;-90
2023/09/09 07:23:38;;;;;;;23.90;21.60;;;25.50;99.90;;;;;;4960167;28;20046;-90
2023/09/09 07:26:07;;;;;;;;;;;25.50;99.90;;;;;;4960255;28;20105;-90
2023/09/09 07:28:33;;;;;;;25.35;23.00;;;25.40;99.90;;;;;;4960097;28;19922;-91
2023/09/09 07:31:04;;;;;;;;;;;25.60;99.90;;;;;;4944162;28;20101;-90
2023/09/09 07:33:39;;;;;;;24.48;22.17;;;25.70;99.90;;;;;;4960516;28;19988;-90
2023/09/09 07:36:14;;;;;;;23.63;21.38;;;25.80;99.90;;;;;;4944440;28;20065;-91
2023/09/09 07:38:44;;;;;;;25.77;23.17;;;25.80;1.00;;;;;;4959728;28;20141;-90
2023/09/09 07:41:15;;;;;;;25.55;23.15;;;25.80;1.00;;;;;;4959002;28;20089;-90
2023/09/09 07:43:51;;;;;;;;;;;;;;;;;;;;;
2023/09/09 07:46:22;;;;;;;26.08;23.58;;;25.80;1.00;;;;;;4961864;28;20047;-91
2023/09/09 07:48:57;;;;;;;25.15;22.55;;;25.70;1.00;;;;;;4960261;28;20484;-91
2023/09/09 07:51:25;;;;;;;24.55;22.25;;;25.80;29.30;;;;;;4961571;28;20042;-91
2023/09/09 07:53:53;;;;;;;25.95;23.35;;;25.70;99.90;;;;;;4963625;28;20043;-90
2023/09/09 07:56:21;;;;;;;27.38;24.92;;;25.70;99.90;;;;;;4980292;28;20050;-91
2023/09/09 07:58:54;;;;;;;27.55;24.52;;;25.70;99.90;;;;;;4979892;28;20053;-91
2023/09/09 08:01:20;;;;;;;26.55;23.75;;;25.60;99.90;;;;;;4963491;28;20046;-91
2023/09/09 08:03:45;;;;;;;;;;;25.50;99.90;;;;;;4963807;28;20378;-92
2023/09/09 08:06:11;;;;;;;27.77;25.17;;;25.50;1.00;;;;;;4963503;28;19922;-91
2023/09/09 08:08:42;;;;;;;;;;;25.50;99.90;;;;;;4964174;28;20110;-93
2023/09/09 08:11:10;;;;;;;29.38;26.38;;;25.40;99.90;;;;;;4963529;28;20399;-94
2023/09/09 08:13:35;;;;;;;28.63;25.75;;;25.40;47.90;;;;;;4964376;28;20428;-92
2023/09/09 08:16:03;;;;;;;;;;;25.40;1.00;;;;;;4963340;28;20182;-91
2023/09/09 08:18:32;;;;;;;28.75;26.05;;;25.40;99.90;;;;;;4963235;28;20380;-91
2023/09/09 08:21:00;;;;;;;31.88;28.75;;;25.40;23.60;;;;;;4962559;28;20501;-91
2023/09/09 08:23:36;;;;;;;30.48;27.60;;;25.50;41.60;;;;;;4979218;28;20489;-92
2023/09/09 08:26:02;;;;;;;30.67;27.57;;;26.10;99.90;;;;;;4962944;28;20053;-91
2023/09/09 08:28:30;;;;;;;;;;;25.50;99.90;;;;;;4947814;28;20038;-92
2023/09/09 08:31:02;;;;;;;32.50;29.25;;;24.70;99.90;;;;;;4963382;28;19922;-91
2023/09/09 08:33:28;;;;;;;31.65;28.48;;;25.60;99.90;;;;;;4963178;28;20050;-92
2023/09/09 08:36:04;;;;;;;34.45;31.13;;;25.60;99.90;;;;;;4963122;28;20152;-92
2023/09/09 08:38:31;;;;;;;35.75;31.98;;;25.60;99.90;;;;;;4963177;28;20045;-92
2023/09/09 08:41:36;;;;;;;33.17;30.00;;;25.60;1.00;;;;;;4978803;28;20101;-92
2023/09/09 08:44:32;;;;;;;29.60;26.60;;;25.70;99.90;;;;;;4962204;28;20053;-91
2023/09/09 08:47:00;;;;;;;33.63;30.13;;;25.70;99.90;;;;;;4962837;28;20129;-90
2023/09/09 08:49:35;;;;;;;32.08;29.00;;;25.70;99.90;;;;;;4947208;28;20050;-92
2023/09/09 08:52:15;;;;;;;34.47;30.75;;;25.90;99.90;;;;;;4962222;28;20135;-91
2023/09/09 08:54:50;;;;;;;34.10;30.85;;;26.00;99.90;;;;;;4963176;28;20051;-92
2023/09/09 08:57:19;;;;;;;33.50;29.45;;;26.00;99.90;;;;;;4962875;28;20050;-92
2023/09/09 08:59:49;;;;;;;34.67;31.38;;;26.00;99.90;;;;;;4978950;28;20046;-92
2023/09/09 09:02:15;;;;;;;36.22;32.65;;;26.10;99.90;;;;;;4961620;28;20049;-92
2023/09/09 09:04:47;;;;;;;;;;;26.10;99.90;;;;;;4962750;28;20046;-92
2023/09/09 09:07:13;;;;;;;37.25;33.60;;;26.10;99.90;;;;;;4962472;28;19921;-92
2023/09/09 09:09:39;;;;;;;34.78;31.27;;;26.20;99.90;;;;;;4962735;28;20050;-92
2023/09/09 09:12:05;;;;;;;;;;;26.20;58.40;;;;;;4962808;28;20069;-92
2023/09/09 09:14:30;;;;;;;29.33;26.42;;;26.20;1.00;;;;;;4962853;28;20365;-92
2023/09/09 09:16:58;;;;;;;;;;;26.20;1.00;;;;;;4962751;28;20489;-92
2023/09/09 09:19:32;;;;;;;30.63;27.40;;;26.30;99.90;;;;;;4962051;28;19972;-92
2023/09/09 09:22:03;;;;;;;32.58;29.38;;;26.50;99.90;;;;;;4962069;28;20516;-92
2023/09/09 09:24:48;;;;;;;31.83;28.77;;;26.40;99.90;;;;;;4978926;28;20054;-92
2023/09/09 09:27:15;;;;;;;30.80;27.80;;;26.50;99.90;;;;;;4962045;28;20385;-91
2023/09/09 09:29:51;;;;;;;31.17;27.40;;;26.50;99.90;;;;;;4962210;28;20137;-92
2023/09/09 09:32:21;;;;;;;;;;;26.60;99.90;;;;;;4962633;28;20050;-92
2023/09/09 09:34:51;;;;;;;32.55;29.15;;;26.60;99.90;;;;;;4961851;28;19922;-93
2023/09/09 09:37:26;;;;;;;31.35;28.13;;;26.70;99.90;;;;;;4945910;28;20133;-92
2023/09/09 09:39:52;;;;;;;32.03;29.08;;;26.70;1.00;;;;;;4962247;28;20042;-92
2023/09/09 09:42:21;;;;;;;30.90;27.85;;;26.70;99.90;;;;;;4977492;28;20054;-93
2023/09/09 09:44:50;;;;;;;29.40;26.50;;;26.80;99.90;;;;;;4962412;28;20049;-92
2023/09/09 09:47:20;;;;;;;35.58;32.08;;;26.80;1.00;;;;;;4961740;28;20050;-91
2023/09/09 09:49:48;;;;;;;33.58;30.13;;;26.80;1.00;;;;;;4978340;28;20077;-92
2023/09/09 09:52:26;;;;;;;30.45;27.13;;;26.60;99.90;;;;;;4961570;28;20046;-93
2023/09/09 09:55:03;;;;;;;28.75;24.98;;;26.90;1.00;;;;;;4945590;28;20113;-92
2023/09/09 09:57:31;;;;;;;;;;;26.90;99.90;;;;;;4978254;28;20049;-92
2023/09/09 10:00:00;;;;;;;28.85;26.13;;;27.00;99.90;;;;;;4961801;28;19965;-92
2023/09/09 10:02:28;;;;;;;30.63;27.58;;;27.00;99.90;;;;;;4945467;28;20132;-91
2023/09/09 10:04:54;;;;;;;29.48;26.20;;;27.00;1.00;;;;;;4961492;28;20050;-93
2023/09/09 10:07:26;;;;;;;31.27;28.10;;;27.00;99.90;;;;;;4961236;28;20119;-93
2023/09/09 10:10:07;;;;;;;31.67;28.50;;;27.00;1.00;;;;;;4945679;28;20053;-93
2023/09/09 10:12:45;;;;;;;33.35;28.80;;;27.10;1.00;;;;;;4961331;28;20042;-92
2023/09/09 10:15:15;;;;;;;28.73;25.83;;;27.20;99.90;;;;;;4960568;28;20050;-93
2023/09/09 10:17:42;;;;;;;29.95;27.08;;;27.30;99.90;;;;;;4961274;28;20137;-92
2023/09/09 10:20:13;;;;;;;30.33;27.23;;;27.40;99.90;;;;;;4961137;28;20042;-92
2023/09/09 10:22:41;;;;;;;28.02;25.08;;;27.40;99.90;;;;;;4962334;28;20043;-92
2023/09/09 10:25:11;;;;;;;30.67;27.35;;;27.40;22.80;;;;;;4963701;28;20046;-92
2023/09/09 10:27:41;;;;;;;30.27;27.48;;;27.50;91.80;;;;;;4963776;28;20054;-91
2023/09/09 10:30:10;;;;;;;29.20;26.23;;;26.70;1.00;;;;;;4963115;28;20042;-92
2023/09/09 10:32:48;;;;;;;27.27;24.73;;;27.60;1.00;;;;;;4962225;28;20123;-91
2023/09/09 10:35:18;;;;;;;26.15;23.60;;;27.80;99.90;;;;;;4961487;28;20061;-92
2023/09/09 10:37:56;;;;;;;24.65;22.33;;;27.80;99.90;;;;;;4962147;28;20057;-91
2023/09/09 10:40:28;;;;;;;25.88;23.23;;;28.00;1.00;;;;;;4960967;28;20047;-91
2023/09/09 10:42:55;;;;;;;22.15;20.10;;;28.00;99.90;;;;;;4961570;28;20086;-93
2023/09/09 10:45:28;;;;;;;19.98;17.27;;;28.00;99.90;;;;;;4961003;28;20057;-91
2023/09/09 10:48:06;;;;;;;20.83;18.73;;;28.20;99.90;;;;;;4960653;28;20042;-92
2023/09/09 10:50:51;;;;;;;24.00;20.67;;;28.20;99.90;;;;;;4960704;28;20043;-92
2023/09/09 10:53:28;;;;;;;21.48;19.40;;;28.20;99.90;;;;;;4944945;28;20046;-92
2023/09/09 10:55:55;;;;;;;;;;;28.30;99.90;;;;;;4961250;28;20046;-92
2023/09/09 10:58:33;;;;;;;16.67;14.75;;;28.40;99.90;;;;;;4960706;28;20005;-92
2023/09/09 11:01:02;;;;;;;18.52;14.48;;;28.50;94.90;;;;;;4960791;28;20145;-92
2023/09/09 11:03:38;;;;;;;16.15;12.27;;;28.50;44.40;;;;;;4960584;28;20141;-92
2023/09/09 11:06:21;;;;;;;18.88;15.45;;;28.60;27.40;;;;;;4958465;28;20055;-92
2023/09/09 11:08:48;;;;;;;14.40;13.10;;;29.60;1.00;;;;;;4953269;28;20053;-87
2023/09/09 11:11:16;;;;;;;16.13;13.70;;;28.70;1.00;;;;;;4965728;28;20510;-86
2023/09/09 11:13:42;;;;;;;14.15;11.93;;;28.80;1.00;;;;;;4980288;28;20113;-85
2023/09/09 11:16:32;;;;;;;13.43;12.15;;;29.00;1.00;;;;;;4983642;28;20050;-85
2023/09/09 11:19:05;;;;;;;13.25;11.85;;;29.20;1.00;;;;;;4963151;28;20133;-86
2023/09/09 11:21:52;;;;;;;13.25;11.85;;;29.20;99.90;;;;;;4962106;28;20088;-86
2023/09/09 11:24:19;;;;;;;12.23;10.80;;;29.30;99.90;;;;;;4960032;28;20054;-85
2023/09/09 11:26:50;;;;;;;13.45;11.43;;;29.30;99.90;;;;;;4945357;28;20046;-84
2023/09/09 11:29:18;;;;;;;15.98;11.68;;;29.50;99.90;;;;;;4950174;28;20035;-85
2023/09/09 11:31:45;;;;;;;19.77;12.00;;;29.70;99.90;;;;;;4950224;28;20046;-85
2023/09/09 11:34:11;;;;;;;15.77;11.73;;;29.90;99.90;;;;;;4965437;28;20552;-85
2023/09/09 11:36:36;;;;;;;14.38;12.75;;;30.00;99.90;;;;;;4947581;28;20039;-89
2023/09/09 11:39:03;;;;;;;13.85;12.43;;;30.00;99.90;;;;;;4950885;28;20129;-90
2023/09/09 11:41:32;;;;;;;13.07;11.73;;;30.20;99.90;;;;;;4965526;28;20137;-92
2023/09/09 11:44:06;;;;;;;22.63;13.85;;;30.20;99.90;;;;;;4965541;28;20070;-93
2023/09/09 11:46:38;;;;;;;12.73;11.07;;;30.20;99.90;;;;;;4957283;28;20043;-85
2023/09/09 11:49:04;;;;;;;15.35;10.18;;;30.30;99.90;;;;;;4965061;28;20065;-86
2023/09/09 11:51:30;;;;;;;14.82;10.15;;;30.40;99.90;;;;;;4962556;28;20397;-87
2023/09/09 11:53:57;;;;;;;13.80;12.35;;;30.60;99.90;;;;;;4925701;28;20477;-83
2023/09/09 11:56:23;;;;;;;12.32;10.65;;;30.70;99.90;;;;;;4982480;28;20397;-86
2023/09/09 11:58:50;;;;;;;12.30;10.93;;;30.70;99.90;;;;;;4950995;28;20041;-84
2023/09/09 12:01:18;;;;;;;14.60;13.27;;;30.80;99.90;;;;;;4962232;28;20058;-87
2023/09/09 12:03:44;;;;;;;14.02;11.43;;;30.80;99.90;;;;;;4981848;28;20050;-87
2023/09/09 12:06:12;;;;;;;13.85;12.30;;;30.80;99.90;;;;;;4967068;28;20050;-89
2023/09/09 12:08:38;;;;;;;13.90;11.05;;;30.80;99.90;;;;;;4964523;28;20117;-89
2023/09/09 12:11:06;;;;;;;12.55;11.35;;;30.80;99.90;;;;;;4949089;28;20057;-89
2023/09/09 12:13:32;;;;;;;12.38;11.05;;;30.90;99.90;;;;;;4964714;28;20199;-89
2023/09/09 12:15:58;;;;;;;14.68;13.35;;;31.00;99.90;;;;;;4947269;28;20525;-89
2023/09/09 12:18:24;;;;;;;13.45;12.15;;;31.00;99.90;;;;;;4950797;28;20417;-88
2023/09/09 12:21:03;;;;;;;14.38;11.90;;;30.90;99.90;;;;;;4958062;28;20050;-88
2023/09/09 12:23:34;;;;;;;14.25;12.02;;;30.80;99.90;;;;;;4951121;28;20057;-90
2023/09/09 12:26:16;;;;;;;14.88;13.35;;;30.80;99.90;;;;;;4964379;28;20061;-90
2023/09/09 12:28:43;;;;;;;13.25;11.88;;;30.70;99.90;;;;;;4966526;28;20063;-88
2023/09/09 12:31:10;;;;;;;11.18;10.07;;;30.70;99.90;;;;;;4932828;28;20042;-88
2023/09/09 12:33:43;;;;;;;14.05;9.80;;;30.80;99.90;;;;;;4950775;28;20038;-89
2023/09/09 12:36:17;;;;;;;12.63;10.52;;;30.80;99.90;;;;;;4983659;28;20125;-87
2023/09/09 12:38:44;;;;;;;12.98;9.30;;;30.80;99.90;;;;;;4937598;28;20394;-92
2023/09/09 12:41:11;;;;;;;9.48;8.57;;;31.00;99.90;;;;;;4950639;28;20477;-92
2023/09/09 12:43:39;;;;;;;10.00;8.90;;;31.00;99.90;;;;;;4951745;28;20050;-92
2023/09/09 12:46:13;;;;;;;10.40;9.02;;;31.10;99.90;;;;;;4951250;28;20204;-92
2023/09/09 12:48:52;;;;;;;11.27;9.43;;;31.20;99.90;;;;;;4952229;28;20053;-92
2023/09/09 12:51:19;;;;;;;10.40;8.60;;;31.20;99.90;;;;;;4954059;28;20043;-92